Chanute Martin Johnson Airport
KCNU : now visible

Airfield :











YOU CAN JOIN US ON...

 
LOGIN :

Register | Disclaimer

   EN    FR    IT 

 









Legend :    VFR   Marginal VFR   IFR   Intensive IFR   Very Intensive IFR
Visi :
Ceiling :
>= 8 km
>= 3000ft
5 to 8 km
1000 to 3000 ft
1500m to 5 km
500 to 1000 ft
800 to 1500m
200 to 500 ft
< 800m
< 200 ft
Symbols :   Thunderstorms  Fog  Heavy snow  Heavy precipitations  Wind > 20 kt






- Airport Elevation : 1002 ft


KCNU - Chanute Martin Johnson

CURRENT METAR :
  • 140552Z AUTO 31004KT 10SM OVC036 02/M05 A3014 RMK AO2 SLP211 T00221050 10044 21011 400831050 51013

EXPIRED METARs :
  • 140452Z AUTO 29004KT 10SM CLR M01/M07 A3013 RMK AO2 SLP211 T10061067
  • 140352Z AUTO VRB05KT 10SM CLR 02/M06 A3013 RMK AO2 SLP208 T00171061

TAF KCNU
Valid from the 14 at 06:00 until the 15 at 06:00 UTC


140533Z 1406/1506 34005KT P6SM BKN035
FM141400 35009KT P6SM SCT045
FM141600 35013KT P6SM SKC



MET'MAP, your aeronautical weather chart ! - Copyright ORBIFLY December 2007 - Disclaimer

ORBIFLY MET'MAP TEAM :

Programming & Development : Alexandra Zaïnal
Concept & Development : Baudouin d'Aumeries
Co-Development & Prog : Marc-Olivier Méhu
Technical & hardware support : Manuel Goepfert

Contact : metmap@orbifly.com




SOURCES & CREDITS :

   NOAA       Earth
Advisory